createdAt,value
2022-12-03T00:01:31.208Z,14.83
2022-12-03T00:11:34.652Z,15.70
2022-12-03T00:21:39.086Z,15.27
2022-12-03T00:31:43.253Z,15.83
2022-12-03T00:41:47.669Z,15.67
2022-12-03T00:51:50.666Z,15.30
2022-12-03T01:01:55.132Z,14.80
2022-12-03T01:11:58.234Z,15.73
2022-12-03T01:22:03.064Z,14.57
2022-12-03T01:32:19.338Z,14.97
2022-12-03T01:42:26.931Z,14.10
2022-12-03T01:52:33.345Z,15.20
2022-12-03T02:02:37.781Z,15.37
2022-12-03T02:12:44.620Z,14.97
2022-12-03T02:22:58.819Z,15.97
2022-12-03T02:33:03.570Z,16.00
2022-12-03T02:43:07.128Z,16.37
2022-12-03T02:53:16.036Z,16.23
2022-12-03T03:03:19.885Z,17.17
2022-12-03T03:13:24.867Z,17.20
2022-12-03T03:23:28.093Z,17.40
2022-12-03T03:33:32.822Z,16.67
2022-12-03T03:43:38.003Z,16.57
2022-12-03T03:53:45.293Z,17.50
2022-12-03T04:03:48.341Z,17.77
2022-12-03T04:13:52.837Z,17.00
2022-12-03T04:23:55.857Z,16.97
2022-12-03T04:34:17.650Z,17.13
2022-12-03T04:44:36.769Z,18.50
2022-12-03T04:54:41.831Z,17.80
2022-12-03T05:04:44.861Z,16.70
2022-12-03T05:14:49.274Z,17.57
2022-12-03T05:24:52.650Z,17.27
2022-12-03T05:34:57.306Z,16.60
2022-12-03T05:45:00.348Z,17.70
2022-12-03T05:55:05.303Z,18.30
2022-12-03T06:05:09.183Z,18.00
2022-12-03T06:15:15.109Z,15.80
2022-12-03T06:25:18.666Z,17.23
2022-12-03T06:35:23.032Z,16.03
2022-12-03T06:45:26.083Z,16.93
2022-12-03T06:55:30.524Z,15.73
2022-12-03T07:05:33.608Z,15.70
2022-12-03T07:15:38.023Z,15.77
2022-12-03T07:25:41.111Z,16.03
2022-12-03T07:35:45.562Z,15.00
2022-12-03T07:45:48.649Z,15.47
2022-12-03T07:55:53.043Z,15.53
2022-12-03T08:05:56.119Z,15.97
2022-12-03T08:16:03.111Z,15.40
2022-12-03T08:26:16.692Z,15.43
2022-12-03T08:36:24.700Z,15.50
2022-12-03T08:46:28.484Z,14.97
2022-12-03T08:56:36.954Z,14.83
2022-12-03T09:06:40.022Z,15.13
2022-12-03T09:16:44.739Z,15.37
2022-12-03T09:26:47.844Z,16.73
2022-12-03T09:36:52.246Z,16.07
2022-12-03T09:46:59.373Z,15.73
2022-12-03T09:57:05.288Z,15.87
2022-12-03T10:07:10.708Z,16.63
2022-12-03T10:17:15.691Z,15.27
2022-12-03T10:27:24.422Z,15.33
2022-12-03T10:37:28.912Z,15.13
2022-12-03T10:47:32.099Z,14.30
2022-12-03T10:57:39.928Z,15.50
2022-12-03T11:07:46.169Z,14.67
2022-12-03T11:17:52.585Z,12.80
2022-12-03T11:28:34.596Z,13.87
2022-12-03T11:38:59.829Z,14.10
2022-12-03T11:49:03.600Z,13.33
2022-12-03T11:59:14.854Z,13.13
2022-12-03T12:09:54.048Z,12.90
2022-12-03T12:30:27.548Z,13.23
2022-12-03T12:40:32.812Z,12.23
2022-12-03T12:50:38.496Z,12.53
2022-12-03T13:00:41.852Z,12.80
2022-12-03T13:10:46.865Z,13.47
2022-12-03T13:20:49.976Z,13.23
2022-12-03T13:30:55.250Z,12.37
2022-12-03T13:41:01.115Z,12.17
2022-12-03T13:51:25.627Z,13.10
2022-12-03T14:01:28.854Z,12.33
2022-12-03T14:11:50.968Z,12.80
2022-12-03T14:21:54.019Z,12.43
2022-12-03T14:31:58.520Z,12.00
2022-12-03T14:42:16.731Z,12.47
2022-12-03T14:52:21.509Z,12.70
2022-12-03T15:02:24.582Z,11.87
2022-12-03T15:12:28.995Z,13.03
2022-12-03T15:22:32.028Z,12.30
2022-12-03T15:32:36.482Z,12.67
2022-12-03T15:42:39.514Z,12.43
2022-12-03T15:52:43.955Z,12.53
2022-12-03T16:02:52.628Z,12.00
2022-12-03T16:12:57.452Z,13.30
2022-12-03T16:23:00.423Z,12.27
2022-12-03T16:33:05.078Z,12.63
2022-12-03T16:43:09.623Z,12.77
2022-12-03T16:53:14.156Z,13.03
2022-12-03T17:03:18.305Z,12.83
2022-12-03T17:13:23.158Z,12.73
2022-12-03T17:23:26.195Z,12.93
2022-12-03T17:33:30.599Z,12.73
2022-12-03T17:43:33.665Z,14.50
2022-12-03T17:53:38.115Z,13.83
2022-12-03T18:03:41.435Z,13.50
2022-12-03T18:13:46.062Z,13.70
2022-12-03T18:23:49.049Z,13.63
2022-12-03T18:33:53.560Z,15.27
2022-12-03T18:43:56.765Z,13.83
2022-12-03T18:54:01.110Z,14.47
2022-12-03T19:04:04.456Z,13.37
2022-12-03T19:14:09.141Z,14.87
2022-12-03T19:24:27.537Z,15.43
2022-12-03T19:34:31.977Z,14.97
2022-12-03T19:44:35.123Z,14.33
2022-12-03T19:54:39.515Z,14.93
2022-12-03T20:04:42.625Z,14.17
2022-12-03T20:14:47.094Z,12.77
2022-12-03T20:24:50.086Z,13.43
2022-12-03T20:34:54.475Z,14.73
2022-12-03T20:44:57.471Z,14.63
2022-12-03T20:55:01.903Z,14.83
2022-12-03T21:05:05.706Z,16.77
2022-12-03T21:15:10.646Z,16.17
2022-12-03T21:25:13.678Z,14.43
2022-12-03T21:35:18.946Z,13.73
2022-12-03T21:45:25.017Z,14.20
2022-12-03T21:55:29.574Z,13.83
2022-12-03T22:05:32.589Z,12.60
2022-12-03T22:15:39.821Z,14.80
2022-12-03T22:25:42.881Z,14.07
2022-12-03T22:35:56.188Z,14.67
2022-12-03T22:45:59.233Z,15.20
2022-12-03T22:56:03.696Z,14.80
2022-12-03T23:06:11.518Z,15.63
2022-12-03T23:16:19.531Z,15.73
2022-12-03T23:26:22.978Z,15.70
2022-12-03T23:36:29.394Z,15.63
2022-12-03T23:46:32.486Z,16.40
2022-12-03T23:56:37.000Z,16.47
